Time;durP1;ratioP1;P1;durP2;ratioP2;P2;SDS_P1;SDS_P2;PMS_P1;PMS_P2;Temp;Humidity;BMP_temperature;BMP_pressure;BME280_temperature;BME280_humidity;BME280_pressure;Samples;Min_cycle;Max_cycle;Signal;HPM_P1;HPM_P2
2022/02/13 00:00:48;;;;;;;2.85;2.1;;;;;;;-2.5;51.50391;95819.92;;;;
2022/02/13 00:01:49;;;;;;;2.85;2.1;;;;;;;-2.5;51.50391;95819.92;;;;
2022/02/13 00:02:49;;;;;;;2.85;2.1;;;;;;;-2.5;51.50391;95819.92;;;;
2022/02/13 00:03:51;;;;;;;2.85;2.1;;;;;;;-2.5;51.50391;95819.92;;;;
2022/02/13 00:04:52;;;;;;;2.85;2.1;;;;;;;-2.5;51.50391;95819.92;;;;
2022/02/13 00:05:52;;;;;;;2.6;1.9;;;;;;;-2.49;51.67188;95823.4;;;;
2022/02/13 00:06:53;;;;;;;2.6;1.9;;;;;;;-2.49;51.67188;95823.4;;;;
2022/02/13 00:07:53;;;;;;;2.6;1.9;;;;;;;-2.49;51.67188;95823.4;;;;
2022/02/13 00:08:54;;;;;;;2.6;1.9;;;;;;;-2.49;51.67188;95823.4;;;;
2022/02/13 00:09:55;;;;;;;2.6;1.9;;;;;;;-2.49;51.67188;95823.4;;;;
2022/02/13 00:10:55;;;;;;;2.6;1.9;;;;;;;-2.49;51.67188;95823.4;;;;
2022/02/13 00:11:56;;;;;;;2.6;1.9;;;;;;;-2.49;51.67188;95823.4;;;;
2022/02/13 00:12:56;;;;;;;2.6;1.9;;;;;;;-2.49;51.67188;95823.4;;;;
2022/02/13 00:13:57;;;;;;;2.6;1.9;;;;;;;-2.49;51.67188;95823.4;;;;
2022/02/13 00:14:58;;;;;;;2.6;1.9;;;;;;;-2.49;51.67188;95823.4;;;;
2022/02/13 00:15:58;;;;;;;2.6;1.9;;;;;;;-2.49;51.67188;95823.4;;;;
2022/02/13 00:16:59;;;;;;;2.6;1.7;;;;;;;-2.47;51.77832;95809.13;;;;
2022/02/13 00:17:59;;;;;;;2.6;1.7;;;;;;;-2.47;51.77832;95809.13;;;;
2022/02/13 00:19:00;;;;;;;2.6;1.7;;;;;;;-2.47;51.77832;95809.13;;;;
2022/02/13 00:20:02;;;;;;;2.6;1.7;;;;;;;-2.47;51.77832;95809.13;;;;
2022/02/13 00:21:04;;;;;;;2.6;1.7;;;;;;;-2.47;51.77832;95809.13;;;;
2022/02/13 00:22:05;;;;;;;2.6;1.7;;;;;;;-2.47;51.77832;95809.13;;;;
2022/02/13 00:23:05;;;;;;;2.6;1.7;;;;;;;-2.47;51.77832;95809.13;;;;
2022/02/13 00:24:06;;;;;;;2.6;1.7;;;;;;;-2.47;51.77832;95809.13;;;;
2022/02/13 00:25:07;;;;;;;2.6;1.7;;;;;;;-2.47;51.77832;95809.13;;;;
2022/02/13 00:26:08;;;;;;;2.6;1.7;;;;;;;-2.47;51.77832;95809.13;;;;
2022/02/13 00:27:08;;;;;;;2.05;1.3;;;;;;;-2.41;52.06836;95802.37;;;;
2022/02/13 00:28:12;;;;;;;2.05;1.3;;;;;;;-2.41;52.06836;95802.37;;;;
2022/02/13 00:29:12;;;;;;;2.05;1.3;;;;;;;-2.41;52.06836;95802.37;;;;
2022/02/13 00:30:13;;;;;;;2.05;1.3;;;;;;;-2.41;52.06836;95802.37;;;;
2022/02/13 00:31:16;;;;;;;2.05;1.3;;;;;;;-2.41;52.06836;95802.37;;;;
2022/02/13 00:32:16;;;;;;;2.05;1.3;;;;;;;-2.41;52.06836;95802.37;;;;
2022/02/13 00:33:17;;;;;;;2.05;1.3;;;;;;;-2.41;52.06836;95802.37;;;;
2022/02/13 00:34:18;;;;;;;2.05;1.3;;;;;;;-2.41;52.06836;95802.37;;;;
2022/02/13 00:35:19;;;;;;;2.05;1.3;;;;;;;-2.41;52.06836;95802.37;;;;
2022/02/13 00:36:19;;;;;;;2.05;1.3;;;;;;;-2.41;52.06836;95802.37;;;;
2022/02/13 00:37:20;;;;;;;2.05;1.3;;;;;;;-2.41;52.06836;95802.37;;;;
2022/02/13 00:38:20;;;;;;;1.35;1.15;;;;;;;-2.21;52.36426;95795.62;;;;
2022/02/13 00:39:21;;;;;;;1.35;1.15;;;;;;;-2.21;52.36426;95795.62;;;;
2022/02/13 00:40:21;;;;;;;1.35;1.15;;;;;;;-2.21;52.36426;95795.62;;;;
2022/02/13 00:41:22;;;;;;;1.35;1.15;;;;;;;-2.21;52.36426;95795.62;;;;
2022/02/13 00:42:23;;;;;;;1.35;1.15;;;;;;;-2.21;52.36426;95795.62;;;;
2022/02/13 00:43:23;;;;;;;1.35;1.15;;;;;;;-2.21;52.36426;95795.62;;;;
2022/02/13 00:44:24;;;;;;;1.35;1.15;;;;;;;-2.21;52.36426;95795.62;;;;
2022/02/13 00:45:24;;;;;;;1.35;1.15;;;;;;;-2.21;52.36426;95795.62;;;;
2022/02/13 00:46:25;;;;;;;1.35;1.15;;;;;;;-2.21;52.36426;95795.62;;;;
2022/02/13 00:47:26;;;;;;;1.35;1.15;;;;;;;-2.21;52.36426;95795.62;;;;
2022/02/13 00:48:26;;;;;;;1.35;1.15;;;;;;;-2.21;52.36426;95795.62;;;;
2022/02/13 00:49:27;;;;;;;1.35;1.15;;;;;;;-2.21;52.36426;95795.62;;;;
2022/02/13 00:50:27;;;;;;;1.35;1.15;;;;;;;-2.21;52.36426;95795.62;;;;
2022/02/13 00:51:28;;;;;;;1.35;1.15;;;;;;;-2.21;52.36426;95795.62;;;;
2022/02/13 00:52:30;;;;;;;1.35;1.15;;;;;;;-2.21;52.36426;95795.62;;;;
2022/02/13 00:53:31;;;;;;;1.35;1.15;;;;;;;-2.21;52.36426;95795.62;;;;
2022/02/13 00:54:32;;;;;;;1.35;1.15;;;;;;;-2.21;52.36426;95795.62;;;;
2022/02/13 00:55:33;;;;;;;1.35;1.15;;;;;;;-2.21;52.36426;95795.62;;;;
2022/02/13 00:56:34;;;;;;;1.35;1.15;;;;;;;-2.21;52.36426;95795.62;;;;
2022/02/13 00:57:35;;;;;;;1.35;1.15;;;;;;;-2.21;52.36426;95795.62;;;;
2022/02/13 00:58:35;;;;;;;1.35;1.15;;;;;;;-2.21;52.36426;95795.62;;;;
2022/02/13 00:59:36;;;;;;;1.8;1.1;;;;;;;-1.66;52.52734;95775.61;;;;
2022/02/13 01:00:36;;;;;;;1.8;1.1;;;;;;;-1.66;52.52734;95775.61;;;;
2022/02/13 01:01:37;;;;;;;1.8;1.1;;;;;;;-1.66;52.52734;95775.61;;;;
2022/02/13 01:02:37;;;;;;;1.8;1.1;;;;;;;-1.66;52.52734;95775.61;;;;
2022/02/13 01:03:38;;;;;;;1.8;1.1;;;;;;;-1.66;52.52734;95775.61;;;;
2022/02/13 01:04:38;;;;;;;1.8;1.1;;;;;;;-1.66;52.52734;95775.61;;;;
2022/02/13 01:05:39;;;;;;;1.8;1.1;;;;;;;-1.66;52.52734;95775.61;;;;
2022/02/13 01:06:40;;;;;;;1.8;1.1;;;;;;;-1.66;52.52734;95775.61;;;;
2022/02/13 01:07:40;;;;;;;1.8;1.1;;;;;;;-1.66;52.52734;95775.61;;;;
2022/02/13 01:08:41;;;;;;;1.8;1.1;;;;;;;-1.66;52.52734;95775.61;;;;
2022/02/13 01:09:42;;;;;;;1.8;1.1;;;;;;;-1.66;52.52734;95775.61;;;;
2022/02/13 01:10:42;;;;;;;1.2;1.1;;;;;;;-1.51;52.42969;95787;;;;
2022/02/13 01:11:43;;;;;;;1.2;1.1;;;;;;;-1.51;52.42969;95787;;;;
2022/02/13 01:12:43;;;;;;;1.2;1.1;;;;;;;-1.51;52.42969;95787;;;;
2022/02/13 01:13:48;;;;;;;1.2;1.1;;;;;;;-1.51;52.42969;95787;;;;
2022/02/13 01:14:48;;;;;;;1.2;1.1;;;;;;;-1.51;52.42969;95787;;;;
2022/02/13 01:15:49;;;;;;;1.2;1.1;;;;;;;-1.51;52.42969;95787;;;;
2022/02/13 01:16:49;;;;;;;1.2;1.1;;;;;;;-1.51;52.42969;95787;;;;
2022/02/13 01:17:50;;;;;;;1.2;1.1;;;;;;;-1.51;52.42969;95787;;;;
2022/02/13 01:18:50;;;;;;;1.2;1.1;;;;;;;-1.51;52.42969;95787;;;;
2022/02/13 01:19:51;;;;;;;1.2;1.1;;;;;;;-1.51;52.42969;95787;;;;
2022/02/13 01:20:51;;;;;;;1.85;1.2;;;;;;;-1.39;52.71875;95771.15;;;;
2022/02/13 01:21:52;;;;;;;1.85;1.2;;;;;;;-1.39;52.71875;95771.15;;;;
2022/02/13 01:22:53;;;;;;;1.85;1.2;;;;;;;-1.39;52.71875;95771.15;;;;
2022/02/13 01:23:53;;;;;;;1.85;1.2;;;;;;;-1.39;52.71875;95771.15;;;;
2022/02/13 01:24:54;;;;;;;1.85;1.2;;;;;;;-1.39;52.71875;95771.15;;;;
2022/02/13 01:25:55;;;;;;;1.85;1.2;;;;;;;-1.39;52.71875;95771.15;;;;
2022/02/13 01:26:55;;;;;;;1.85;1.2;;;;;;;-1.39;52.71875;95771.15;;;;
2022/02/13 01:27:56;;;;;;;1.85;1.2;;;;;;;-1.39;52.71875;95771.15;;;;
2022/02/13 01:28:56;;;;;;;1.85;1.2;;;;;;;-1.39;52.71875;95771.15;;;;
2022/02/13 01:29:57;;;;;;;1.85;1.2;;;;;;;-1.39;52.71875;95771.15;;;;
2022/02/13 01:31:01;;;;;;;1.85;1.2;;;;;;;-1.39;52.71875;95771.15;;;;
2022/02/13 01:32:02;;;;;;;1.85;1.2;;;;;;;-1.39;52.71875;95771.15;;;;
2022/02/13 01:33:03;;;;;;;1.85;1.2;;;;;;;-1.39;52.71875;95771.15;;;;
2022/02/13 01:34:04;;;;;;;1.85;1.2;;;;;;;-1.39;52.71875;95771.15;;;;
2022/02/13 01:35:05;;;;;;;1.85;1.2;;;;;;;-1.39;52.71875;95771.15;;;;
2022/02/13 01:36:06;;;;;;;1.85;1.2;;;;;;;-1.39;52.71875;95771.15;;;;
2022/02/13 01:37:07;;;;;;;1.85;1.2;;;;;;;-1.39;52.71875;95771.15;;;;
2022/02/13 01:38:08;;;;;;;1.85;1.2;;;;;;;-1.39;52.71875;95771.15;;;;
2022/02/13 01:39:11;;;;;;;1.85;1.2;;;;;;;-1.39;52.71875;95771.15;;;;
2022/02/13 01:40:11;;;;;;;1.85;1.2;;;;;;;-1.39;52.71875;95771.15;;;;
2022/02/13 01:41:13;;;;;;;1.85;1.2;;;;;;;-1.39;52.71875;95771.15;;;;
2022/02/13 01:42:13;;;;;;;1.1;1;;;;;;;-1.24;52.72656;95770.94;;;;
2022/02/13 01:43:15;;;;;;;1.1;1;;;;;;;-1.24;52.72656;95770.94;;;;
2022/02/13 01:44:15;;;;;;;1.1;1;;;;;;;-1.24;52.72656;95770.94;;;;
2022/02/13 01:45:24;;;;;;;1.1;1;;;;;;;-1.24;52.72656;95770.94;;;;
2022/02/13 01:46:25;;;;;;;1.1;1;;;;;;;-1.24;52.72656;95770.94;;;;
2022/02/13 01:47:29;;;;;;;1.1;1;;;;;;;-1.24;52.72656;95770.94;;;;
2022/02/13 01:48:30;;;;;;;1.1;1;;;;;;;-1.24;52.72656;95770.94;;;;
2022/02/13 01:49:31;;;;;;;1.1;1;;;;;;;-1.24;52.72656;95770.94;;;;
2022/02/13 01:50:32;;;;;;;1.1;1;;;;;;;-1.24;52.72656;95770.94;;;;
2022/02/13 01:51:32;;;;;;;1.1;1;;;;;;;-1.24;52.72656;95770.94;;;;
2022/02/13 01:52:33;;;;;;;1.7;1.2;;;;;;;-1.18;52.67969;95766.85;;;;
2022/02/13 01:53:33;;;;;;;1.7;1.2;;;;;;;-1.18;52.67969;95766.85;;;;
2022/02/13 01:54:35;;;;;;;1.7;1.2;;;;;;;-1.18;52.67969;95766.85;;;;
2022/02/13 01:55:35;;;;;;;1.7;1.2;;;;;;;-1.18;52.67969;95766.85;;;;
2022/02/13 01:56:36;;;;;;;1.7;1.2;;;;;;;-1.18;52.67969;95766.85;;;;
2022/02/13 01:57:37;;;;;;;1.7;1.2;;;;;;;-1.18;52.67969;95766.85;;;;
2022/02/13 01:58:37;;;;;;;1.7;1.2;;;;;;;-1.18;52.67969;95766.85;;;;
2022/02/13 01:59:38;;;;;;;1.7;1.2;;;;;;;-1.18;52.67969;95766.85;;;;
2022/02/13 02:00:39;;;;;;;1.7;1.2;;;;;;;-1.18;52.67969;95766.85;;;;
2022/02/13 02:01:40;;;;;;;1.7;1.2;;;;;;;-1.18;52.67969;95766.85;;;;
2022/02/13 02:02:41;;;;;;;1.7;1.2;;;;;;;-1.18;52.67969;95766.85;;;;
2022/02/13 02:03:42;;;;;;;1.3;1.2;;;;;;;-1.15;52.62207;95767.47;;;;
2022/02/13 02:04:42;;;;;;;1.3;1.2;;;;;;;-1.15;52.62207;95767.47;;;;
2022/02/13 02:05:44;;;;;;;1.3;1.2;;;;;;;-1.15;52.62207;95767.47;;;;
2022/02/13 02:06:44;;;;;;;1.3;1.2;;;;;;;-1.15;52.62207;95767.47;;;;
2022/02/13 02:07:45;;;;;;;1.3;1.2;;;;;;;-1.15;52.62207;95767.47;;;;
2022/02/13 02:08:45;;;;;;;1.3;1.2;;;;;;;-1.15;52.62207;95767.47;;;;
2022/02/13 02:09:46;;;;;;;1.3;1.2;;;;;;;-1.15;52.62207;95767.47;;;;
2022/02/13 02:10:48;;;;;;;1.3;1.2;;;;;;;-1.15;52.62207;95767.47;;;;
2022/02/13 02:11:49;;;;;;;1.3;1.2;;;;;;;-1.15;52.62207;95767.47;;;;
2022/02/13 02:12:49;;;;;;;1.3;1.2;;;;;;;-1.15;52.62207;95767.47;;;;
2022/02/13 02:13:50;;;;;;;1.3;1.2;;;;;;;-1.15;52.62207;95767.47;;;;
2022/02/13 02:14:51;;;;;;;1.25;0.95;;;;;;;-1.28;52.70996;95757.75;;;;
2022/02/13 02:15:52;;;;;;;1.25;0.95;;;;;;;-1.28;52.70996;95757.75;;;;
2022/02/13 02:16:52;;;;;;;1.25;0.95;;;;;;;-1.28;52.70996;95757.75;;;;
2022/02/13 02:17:53;;;;;;;1.25;0.95;;;;;;;-1.28;52.70996;95757.75;;;;
2022/02/13 02:18:54;;;;;;;1.25;0.95;;;;;;;-1.28;52.70996;95757.75;;;;
2022/02/13 02:19:54;;;;;;;1.25;0.95;;;;;;;-1.28;52.70996;95757.75;;;;
2022/02/13 02:20:58;;;;;;;1.25;0.95;;;;;;;-1.28;52.70996;95757.75;;;;
2022/02/13 02:21:59;;;;;;;1.25;0.95;;;;;;;-1.28;52.70996;95757.75;;;;
2022/02/13 02:22:59;;;;;;;1.25;0.95;;;;;;;-1.28;52.70996;95757.75;;;;
2022/02/13 02:24:00;;;;;;;1.25;0.95;;;;;;;-1.28;52.70996;95757.75;;;;
2022/02/13 02:25:00;;;;;;;1.5;1.05;;;;;;;-1.34;52.77539;95750.41;;;;
2022/02/13 02:26:01;;;;;;;1.5;1.05;;;;;;;-1.34;52.77539;95750.41;;;;
2022/02/13 02:27:02;;;;;;;1.5;1.05;;;;;;;-1.34;52.77539;95750.41;;;;
2022/02/13 02:28:03;;;;;;;1.5;1.05;;;;;;;-1.34;52.77539;95750.41;;;;
2022/02/13 02:29:04;;;;;;;1.5;1.05;;;;;;;-1.34;52.77539;95750.41;;;;
2022/02/13 02:30:05;;;;;;;1.5;1.05;;;;;;;-1.34;52.77539;95750.41;;;;
2022/02/13 02:31:07;;;;;;;1.5;1.05;;;;;;;-1.34;52.77539;95750.41;;;;
2022/02/13 02:32:10;;;;;;;1.5;1.05;;;;;;;-1.34;52.77539;95750.41;;;;
2022/02/13 02:33:11;;;;;;;1.5;1.05;;;;;;;-1.34;52.77539;95750.41;;;;
2022/02/13 02:34:12;;;;;;;1.5;1.05;;;;;;;-1.34;52.77539;95750.41;;;;
2022/02/13 02:35:12;;;;;;;1.5;1.05;;;;;;;-1.34;52.77539;95750.41;;;;
2022/02/13 02:36:13;;;;;;;2;1.2;;;;;;;-1.44;52.74316;95741.63;;;;
2022/02/13 02:37:15;;;;;;;2;1.2;;;;;;;-1.44;52.74316;95741.63;;;;
2022/02/13 02:38:15;;;;;;;2;1.2;;;;;;;-1.44;52.74316;95741.63;;;;
2022/02/13 02:39:16;;;;;;;2;1.2;;;;;;;-1.44;52.74316;95741.63;;;;
2022/02/13 02:40:18;;;;;;;2;1.2;;;;;;;-1.44;52.74316;95741.63;;;;
2022/02/13 02:41:19;;;;;;;2;1.2;;;;;;;-1.44;52.74316;95741.63;;;;
2022/02/13 02:42:20;;;;;;;2;1.2;;;;;;;-1.44;52.74316;95741.63;;;;
2022/02/13 02:43:21;;;;;;;2;1.2;;;;;;;-1.44;52.74316;95741.63;;;;
2022/02/13 02:44:21;;;;;;;2;1.2;;;;;;;-1.44;52.74316;95741.63;;;;
2022/02/13 02:45:22;;;;;;;2;1.2;;;;;;;-1.44;52.74316;95741.63;;;;
2022/02/13 02:46:22;;;;;;;1;0.9;;;;;;;-1.52;52.73242;95745.59;;;;
2022/02/13 02:47:23;;;;;;;1;0.9;;;;;;;-1.52;52.73242;95745.59;;;;
2022/02/13 02:48:23;;;;;;;1;0.9;;;;;;;-1.52;52.73242;95745.59;;;;
2022/02/13 02:49:24;;;;;;;1;0.9;;;;;;;-1.52;52.73242;95745.59;;;;
2022/02/13 02:50:24;;;;;;;1;0.9;;;;;;;-1.52;52.73242;95745.59;;;;
2022/02/13 02:51:25;;;;;;;1;0.9;;;;;;;-1.52;52.73242;95745.59;;;;
2022/02/13 02:52:26;;;;;;;1;0.9;;;;;;;-1.52;52.73242;95745.59;;;;
2022/02/13 02:53:26;;;;;;;1;0.9;;;;;;;-1.52;52.73242;95745.59;;;;
2022/02/13 02:54:27;;;;;;;1;0.9;;;;;;;-1.52;52.73242;95745.59;;;;
2022/02/13 02:55:28;;;;;;;1;0.9;;;;;;;-1.52;52.73242;95745.59;;;;
2022/02/13 02:56:28;;;;;;;1;0.9;;;;;;;-1.52;52.73242;95745.59;;;;
2022/02/13 02:57:29;;;;;;;1.4;1;;;;;;;-1.69;52.76465;95745.03;;;;
2022/02/13 02:58:29;;;;;;;1.4;1;;;;;;;-1.69;52.76465;95745.03;;;;
2022/02/13 02:59:31;;;;;;;1.4;1;;;;;;;-1.69;52.76465;95745.03;;;;
2022/02/13 03:00:32;;;;;;;1.4;1;;;;;;;-1.69;52.76465;95745.03;;;;
2022/02/13 03:01:33;;;;;;;1.4;1;;;;;;;-1.69;52.76465;95745.03;;;;
2022/02/13 03:02:33;;;;;;;1.4;1;;;;;;;-1.69;52.76465;95745.03;;;;
2022/02/13 03:03:35;;;;;;;1.4;1;;;;;;;-1.69;52.76465;95745.03;;;;
2022/02/13 03:04:35;;;;;;;1.4;1;;;;;;;-1.69;52.76465;95745.03;;;;
2022/02/13 03:05:36;;;;;;;1.4;1;;;;;;;-1.69;52.76465;95745.03;;;;
2022/02/13 03:06:38;;;;;;;1.4;1;;;;;;;-1.69;52.76465;95745.03;;;;
2022/02/13 03:07:39;;;;;;;1.4;1;;;;;;;-1.69;52.76465;95745.03;;;;
2022/02/13 03:08:39;;;;;;;1.4;1;;;;;;;-1.69;52.76465;95745.03;;;;
2022/02/13 03:09:40;;;;;;;1.4;1;;;;;;;-1.69;52.76465;95745.03;;;;
2022/02/13 03:10:40;;;;;;;1.4;1;;;;;;;-1.69;52.76465;95745.03;;;;
2022/02/13 03:11:41;;;;;;;1.4;1;;;;;;;-1.69;52.76465;95745.03;;;;
2022/02/13 03:12:41;;;;;;;1.4;1;;;;;;;-1.69;52.76465;95745.03;;;;
2022/02/13 03:13:42;;;;;;;1.4;1;;;;;;;-1.69;52.76465;95745.03;;;;
2022/02/13 03:14:42;;;;;;;1.4;1;;;;;;;-1.69;52.76465;95745.03;;;;
2022/02/13 03:15:43;;;;;;;1.4;1;;;;;;;-1.69;52.76465;95745.03;;;;
2022/02/13 03:16:44;;;;;;;1.4;1;;;;;;;-1.69;52.76465;95745.03;;;;
2022/02/13 03:17:45;;;;;;;1.4;1;;;;;;;-1.69;52.76465;95745.03;;;;
2022/02/13 03:18:45;;;;;;;1.4;1.05;;;;;;;-2.01;52.93262;95738.55;;;;
2022/02/13 03:19:46;;;;;;;1.4;1.05;;;;;;;-2.01;52.93262;95738.55;;;;
2022/02/13 03:20:46;;;;;;;1.4;1.05;;;;;;;-2.01;52.93262;95738.55;;;;
2022/02/13 03:21:48;;;;;;;1.4;1.05;;;;;;;-2.01;52.93262;95738.55;;;;
2022/02/13 03:22:49;;;;;;;1.4;1.05;;;;;;;-2.01;52.93262;95738.55;;;;
2022/02/13 03:23:49;;;;;;;1.4;1.05;;;;;;;-2.01;52.93262;95738.55;;;;
2022/02/13 03:24:49;;;;;;;1.4;1.05;;;;;;;-2.01;52.93262;95738.55;;;;
2022/02/13 03:25:50;;;;;;;1.4;1.05;;;;;;;-2.01;52.93262;95738.55;;;;
2022/02/13 03:26:50;;;;;;;1.4;1.05;;;;;;;-2.01;52.93262;95738.55;;;;
2022/02/13 03:27:51;;;;;;;1.4;1.05;;;;;;;-2.01;52.93262;95738.55;;;;
2022/02/13 03:28:52;;;;;;;1.7;0.9;;;;;;;-2.07;53.01953;95737.84;;;;
2022/02/13 03:29:52;;;;;;;1.7;0.9;;;;;;;-2.07;53.01953;95737.84;;;;
2022/02/13 03:30:53;;;;;;;1.7;0.9;;;;;;;-2.07;53.01953;95737.84;;;;
2022/02/13 03:31:54;;;;;;;1.7;0.9;;;;;;;-2.07;53.01953;95737.84;;;;
2022/02/13 03:32:54;;;;;;;1.7;0.9;;;;;;;-2.07;53.01953;95737.84;;;;
2022/02/13 03:33:55;;;;;;;1.7;0.9;;;;;;;-2.07;53.01953;95737.84;;;;
2022/02/13 03:34:55;;;;;;;1.7;0.9;;;;;;;-2.07;53.01953;95737.84;;;;
2022/02/13 03:35:56;;;;;;;1.7;0.9;;;;;;;-2.07;53.01953;95737.84;;;;
2022/02/13 03:36:56;;;;;;;1.7;0.9;;;;;;;-2.07;53.01953;95737.84;;;;
2022/02/13 03:37:57;;;;;;;1.7;0.9;;;;;;;-2.07;53.01953;95737.84;;;;
2022/02/13 03:38:58;;;;;;;1.7;0.9;;;;;;;-2.07;53.01953;95737.84;;;;
2022/02/13 03:39:58;;;;;;;1.35;1;;;;;;;-2.15;53.0625;95733.28;;;;
2022/02/13 03:40:59;;;;;;;1.35;1;;;;;;;-2.15;53.0625;95733.28;;;;
2022/02/13 03:42:00;;;;;;;1.35;1;;;;;;;-2.15;53.0625;95733.28;;;;
2022/02/13 03:43:00;;;;;;;1.35;1;;;;;;;-2.15;53.0625;95733.28;;;;
2022/02/13 03:44:01;;;;;;;1.35;1;;;;;;;-2.15;53.0625;95733.28;;;;
2022/02/13 03:45:01;;;;;;;1.35;1;;;;;;;-2.15;53.0625;95733.28;;;;
2022/02/13 03:46:03;;;;;;;1.35;1;;;;;;;-2.15;53.0625;95733.28;;;;
2022/02/13 03:47:03;;;;;;;1.35;1;;;;;;;-2.15;53.0625;95733.28;;;;
2022/02/13 03:48:05;;;;;;;1.35;1;;;;;;;-2.15;53.0625;95733.28;;;;
2022/02/13 03:49:07;;;;;;;1.35;1;;;;;;;-2.15;53.0625;95733.28;;;;
2022/02/13 03:50:08;;;;;;;1.1;1;;;;;;;-2.03;53.10742;95725.99;;;;
2022/02/13 03:51:09;;;;;;;1.1;1;;;;;;;-2.03;53.10742;95725.99;;;;
2022/02/13 03:52:10;;;;;;;1.1;1;;;;;;;-2.03;53.10742;95725.99;;;;
2022/02/13 03:53:10;;;;;;;1.1;1;;;;;;;-2.03;53.10742;95725.99;;;;
2022/02/13 03:54:11;;;;;;;1.1;1;;;;;;;-2.03;53.10742;95725.99;;;;
2022/02/13 03:55:13;;;;;;;1.1;1;;;;;;;-2.03;53.10742;95725.99;;;;
2022/02/13 03:56:14;;;;;;;1.1;1;;;;;;;-2.03;53.10742;95725.99;;;;
2022/02/13 03:57:15;;;;;;;1.1;1;;;;;;;-2.03;53.10742;95725.99;;;;
2022/02/13 03:58:15;;;;;;;1.1;1;;;;;;;-2.03;53.10742;95725.99;;;;
2022/02/13 03:59:16;;;;;;;1.1;1;;;;;;;-2.03;53.10742;95725.99;;;;
2022/02/13 04:00:18;;;;;;;1.1;1;;;;;;;-2.03;53.10742;95725.99;;;;
2022/02/13 04:01:19;;;;;;;1.05;0.9;;;;;;;-1.97;53.05176;95722.74;;;;
2022/02/13 04:02:19;;;;;;;1.05;0.9;;;;;;;-1.97;53.05176;95722.74;;;;
2022/02/13 04:03:21;;;;;;;1.05;0.9;;;;;;;-1.97;53.05176;95722.74;;;;
2022/02/13 04:04:22;;;;;;;1.05;0.9;;;;;;;-1.97;53.05176;95722.74;;;;
2022/02/13 04:05:22;;;;;;;1.05;0.9;;;;;;;-1.97;53.05176;95722.74;;;;
2022/02/13 04:06:23;;;;;;;1.05;0.9;;;;;;;-1.97;53.05176;95722.74;;;;
2022/02/13 04:07:24;;;;;;;1.05;0.9;;;;;;;-1.97;53.05176;95722.74;;;;
2022/02/13 04:08:24;;;;;;;1.05;0.9;;;;;;;-1.97;53.05176;95722.74;;;;
2022/02/13 04:09:25;;;;;;;1.05;0.9;;;;;;;-1.97;53.05176;95722.74;;;;
2022/02/13 04:10:25;;;;;;;1.05;0.9;;;;;;;-1.97;53.05176;95722.74;;;;
2022/02/13 04:11:26;;;;;;;1.05;0.9;;;;;;;-1.97;53.05176;95722.74;;;;
2022/02/13 04:12:26;;;;;;;1.3;1.1;;;;;;;-1.93;52.95215;95734.69;;;;
2022/02/13 04:13:27;;;;;;;1.3;1.1;;;;;;;-1.93;52.95215;95734.69;;;;
2022/02/13 04:14:28;;;;;;;1.3;1.1;;;;;;;-1.93;52.95215;95734.69;;;;
2022/02/13 04:15:28;;;;;;;1.3;1.1;;;;;;;-1.93;52.95215;95734.69;;;;
2022/02/13 04:16:29;;;;;;;1.3;1.1;;;;;;;-1.93;52.95215;95734.69;;;;
2022/02/13 04:17:29;;;;;;;1.3;1.1;;;;;;;-1.93;52.95215;95734.69;;;;
2022/02/13 04:18:30;;;;;;;1.3;1.1;;;;;;;-1.93;52.95215;95734.69;;;;
2022/02/13 04:19:30;;;;;;;1.3;1.1;;;;;;;-1.93;52.95215;95734.69;;;;
2022/02/13 04:20:31;;;;;;;1.3;1.1;;;;;;;-1.93;52.95215;95734.69;;;;
2022/02/13 04:21:31;;;;;;;1.3;1.1;;;;;;;-1.93;52.95215;95734.69;;;;
2022/02/13 04:22:32;;;;;;;1.1;0.9;;;;;;;-2.11;53.02539;95736.41;;;;
2022/02/13 04:23:32;;;;;;;1.1;0.9;;;;;;;-2.11;53.02539;95736.41;;;;
2022/02/13 04:24:33;;;;;;;1.1;0.9;;;;;;;-2.11;53.02539;95736.41;;;;
2022/02/13 04:25:34;;;;;;;1.1;0.9;;;;;;;-2.11;53.02539;95736.41;;;;
2022/02/13 04:26:35;;;;;;;1.1;0.9;;;;;;;-2.11;53.02539;95736.41;;;;
2022/02/13 04:27:36;;;;;;;1.1;0.9;;;;;;;-2.11;53.02539;95736.41;;;;
2022/02/13 04:28:37;;;;;;;1.1;0.9;;;;;;;-2.11;53.02539;95736.41;;;;
2022/02/13 04:29:37;;;;;;;1.1;0.9;;;;;;;-2.11;53.02539;95736.41;;;;
2022/02/13 04:30:38;;;;;;;1.1;0.9;;;;;;;-2.11;53.02539;95736.41;;;;
2022/02/13 04:31:39;;;;;;;1.1;0.9;;;;;;;-2.11;53.02539;95736.41;;;;
2022/02/13 04:32:39;;;;;;;1.1;0.9;;;;;;;-2.11;53.02539;95736.41;;;;
2022/02/13 04:33:40;;;;;;;1.1;0.9;;;;;;;-2.31;53.21094;95726;;;;
2022/02/13 04:34:41;;;;;;;1.1;0.9;;;;;;;-2.31;53.21094;95726;;;;
2022/02/13 04:35:42;;;;;;;1.1;0.9;;;;;;;-2.31;53.21094;95726;;;;
2022/02/13 04:36:42;;;;;;;1.1;0.9;;;;;;;-2.31;53.21094;95726;;;;
2022/02/13 04:37:43;;;;;;;1.1;0.9;;;;;;;-2.31;53.21094;95726;;;;
2022/02/13 04:38:43;;;;;;;1.1;0.9;;;;;;;-2.31;53.21094;95726;;;;
2022/02/13 04:39:44;;;;;;;1.1;0.9;;;;;;;-2.31;53.21094;95726;;;;
2022/02/13 04:40:44;;;;;;;1.1;0.9;;;;;;;-2.31;53.21094;95726;;;;
2022/02/13 04:41:45;;;;;;;1.1;0.9;;;;;;;-2.31;53.21094;95726;;;;
2022/02/13 04:42:45;;;;;;;1.1;0.9;;;;;;;-2.31;53.21094;95726;;;;
2022/02/13 04:43:46;;;;;;;1.15;1.05;;;;;;;-2.32;53.42773;95719.03;;;;
2022/02/13 04:44:47;;;;;;;1.15;1.05;;;;;;;-2.32;53.42773;95719.03;;;;
2022/02/13 04:45:47;;;;;;;1.15;1.05;;;;;;;-2.32;53.42773;95719.03;;;;
2022/02/13 04:46:48;;;;;;;1.15;1.05;;;;;;;-2.32;53.42773;95719.03;;;;
2022/02/13 04:47:49;;;;;;;1.15;1.05;;;;;;;-2.32;53.42773;95719.03;;;;
2022/02/13 04:48:49;;;;;;;1.15;1.05;;;;;;;-2.32;53.42773;95719.03;;;;
2022/02/13 04:49:50;;;;;;;1.15;1.05;;;;;;;-2.32;53.42773;95719.03;;;;
2022/02/13 04:50:51;;;;;;;1.15;1.05;;;;;;;-2.32;53.42773;95719.03;;;;
2022/02/13 04:51:51;;;;;;;1.15;1.05;;;;;;;-2.32;53.42773;95719.03;;;;
2022/02/13 04:52:52;;;;;;;1.15;1.05;;;;;;;-2.32;53.42773;95719.03;;;;
2022/02/13 04:53:54;;;;;;;1.15;1.05;;;;;;;-2.32;53.42773;95719.03;;;;
2022/02/13 04:54:55;;;;;;;1.4;1.2;;;;;;;-2.06;53.59668;95712.56;;;;
2022/02/13 04:55:57;;;;;;;1.4;1.2;;;;;;;-2.06;53.59668;95712.56;;;;
2022/02/13 04:56:57;;;;;;;1.4;1.2;;;;;;;-2.06;53.59668;95712.56;;;;
2022/02/13 04:57:58;;;;;;;1.4;1.2;;;;;;;-2.06;53.59668;95712.56;;;;
2022/02/13 04:59:02;;;;;;;1.4;1.2;;;;;;;-2.06;53.59668;95712.56;;;;
2022/02/13 05:00:03;;;;;;;1.4;1.2;;;;;;;-2.06;53.59668;95712.56;;;;
2022/02/13 05:01:05;;;;;;;1.4;1.2;;;;;;;-2.06;53.59668;95712.56;;;;
2022/02/13 05:02:05;;;;;;;1.4;1.2;;;;;;;-2.06;53.59668;95712.56;;;;
2022/02/13 05:03:06;;;;;;;1.4;1.2;;;;;;;-2.06;53.59668;95712.56;;;;
2022/02/13 05:04:06;;;;;;;1.4;1.2;;;;;;;-2.06;53.59668;95712.56;;;;
2022/02/13 05:05:07;;;;;;;1.7;1.1;;;;;;;-1.64;53.33594;95702.66;;;;
2022/02/13 05:06:08;;;;;;;1.7;1.1;;;;;;;-1.64;53.33594;95702.66;;;;
2022/02/13 05:07:09;;;;;;;1.7;1.1;;;;;;;-1.64;53.33594;95702.66;;;;
2022/02/13 05:08:09;;;;;;;1.7;1.1;;;;;;;-1.64;53.33594;95702.66;;;;
2022/02/13 05:09:10;;;;;;;1.7;1.1;;;;;;;-1.64;53.33594;95702.66;;;;
2022/02/13 05:10:11;;;;;;;1.7;1.1;;;;;;;-1.64;53.33594;95702.66;;;;
2022/02/13 05:11:12;;;;;;;1.7;1.1;;;;;;;-1.64;53.33594;95702.66;;;;
2022/02/13 05:12:12;;;;;;;1.7;1.1;;;;;;;-1.64;53.33594;95702.66;;;;
2022/02/13 05:13:13;;;;;;;1.7;1.1;;;;;;;-1.64;53.33594;95702.66;;;;
2022/02/13 05:14:14;;;;;;;1.7;1.1;;;;;;;-1.64;53.33594;95702.66;;;;
2022/02/13 05:15:16;;;;;;;1.7;1.1;;;;;;;-1.64;53.33594;95702.66;;;;
2022/02/13 05:16:17;;;;;;;1.45;1.05;;;;;;;-1.42;53.21582;95704.01;;;;
2022/02/13 05:17:17;;;;;;;1.45;1.05;;;;;;;-1.42;53.21582;95704.01;;;;
2022/02/13 05:18:18;;;;;;;1.45;1.05;;;;;;;-1.42;53.21582;95704.01;;;;
2022/02/13 05:19:19;;;;;;;1.45;1.05;;;;;;;-1.42;53.21582;95704.01;;;;
2022/02/13 05:20:19;;;;;;;1.45;1.05;;;;;;;-1.42;53.21582;95704.01;;;;
2022/02/13 05:21:20;;;;;;;1.45;1.05;;;;;;;-1.42;53.21582;95704.01;;;;
2022/02/13 05:22:20;;;;;;;1.45;1.05;;;;;;;-1.42;53.21582;95704.01;;;;
2022/02/13 05:23:21;;;;;;;1.45;1.05;;;;;;;-1.42;53.21582;95704.01;;;;
2022/02/13 05:24:21;;;;;;;1.45;1.05;;;;;;;-1.42;53.21582;95704.01;;;;
2022/02/13 05:25:22;;;;;;;1.45;1.05;;;;;;;-1.42;53.21582;95704.01;;;;
2022/02/13 05:26:23;;;;;;;3.15;1.55;;;;;;;-1.31;53.11426;95683.91;;;;
2022/02/13 05:27:23;;;;;;;3.15;1.55;;;;;;;-1.31;53.11426;95683.91;;;;
2022/02/13 05:28:24;;;;;;;3.15;1.55;;;;;;;-1.31;53.11426;95683.91;;;;
2022/02/13 05:29:24;;;;;;;3.15;1.55;;;;;;;-1.31;53.11426;95683.91;;;;
2022/02/13 05:30:25;;;;;;;3.15;1.55;;;;;;;-1.31;53.11426;95683.91;;;;
2022/02/13 05:31:29;;;;;;;3.15;1.55;;;;;;;-1.31;53.11426;95683.91;;;;
2022/02/13 05:32:30;;;;;;;3.15;1.55;;;;;;;-1.31;53.11426;95683.91;;;;
2022/02/13 05:33:31;;;;;;;3.15;1.55;;;;;;;-1.31;53.11426;95683.91;;;;
2022/02/13 05:34:32;;;;;;;3.15;1.55;;;;;;;-1.31;53.11426;95683.91;;;;
2022/02/13 05:35:32;;;;;;;3.15;1.55;;;;;;;-1.31;53.11426;95683.91;;;;
2022/02/13 05:36:33;;;;;;;3.15;1.55;;;;;;;-1.31;53.11426;95683.91;;;;
2022/02/13 05:37:33;;;;;;;2.1;1.3;;;;;;;-1.15;53.00977;95674.24;;;;
2022/02/13 05:38:34;;;;;;;2.1;1.3;;;;;;;-1.15;53.00977;95674.24;;;;
2022/02/13 05:39:35;;;;;;;2.1;1.3;;;;;;;-1.15;53.00977;95674.24;;;;
2022/02/13 05:40:35;;;;;;;2.1;1.3;;;;;;;-1.15;53.00977;95674.24;;;;
2022/02/13 05:41:36;;;;;;;2.1;1.3;;;;;;;-1.15;53.00977;95674.24;;;;
2022/02/13 05:42:36;;;;;;;2.1;1.3;;;;;;;-1.15;53.00977;95674.24;;;;
2022/02/13 05:43:37;;;;;;;2.1;1.3;;;;;;;-1.15;53.00977;95674.24;;;;
2022/02/13 05:44:38;;;;;;;2.1;1.3;;;;;;;-1.15;53.00977;95674.24;;;;
2022/02/13 05:45:39;;;;;;;2.1;1.3;;;;;;;-1.15;53.00977;95674.24;;;;
2022/02/13 05:46:39;;;;;;;2.1;1.3;;;;;;;-1.15;53.00977;95674.24;;;;
2022/02/13 05:47:41;;;;;;;3.4;1.25;;;;;;;-1.19;52.91016;95676.89;;;;
2022/02/13 05:48:45;;;;;;;3.4;1.25;;;;;;;-1.19;52.91016;95676.89;;;;
2022/02/13 05:49:46;;;;;;;3.4;1.25;;;;;;;-1.19;52.91016;95676.89;;;;
2022/02/13 05:50:47;;;;;;;3.4;1.25;;;;;;;-1.19;52.91016;95676.89;;;;
2022/02/13 05:51:47;;;;;;;3.4;1.25;;;;;;;-1.19;52.91016;95676.89;;;;
2022/02/13 05:52:48;;;;;;;3.4;1.25;;;;;;;-1.19;52.91016;95676.89;;;;
2022/02/13 05:53:48;;;;;;;3.4;1.25;;;;;;;-1.19;52.91016;95676.89;;;;
2022/02/13 05:54:49;;;;;;;3.4;1.25;;;;;;;-1.19;52.91016;95676.89;;;;